createdAt,value
2023-05-21T00:00:26.926Z,16.21
2023-05-21T00:05:28.874Z,16.17
2023-05-21T00:10:30.601Z,16.15
2023-05-21T00:15:32.363Z,16.16
2023-05-21T00:20:34.136Z,16.21
2023-05-21T00:25:36.041Z,16.24
2023-05-21T00:30:38.196Z,16.24
2023-05-21T00:35:40.083Z,16.21
2023-05-21T00:40:41.859Z,16.18
2023-05-21T00:45:47.517Z,16.17
2023-05-21T00:50:50.208Z,16.20
2023-05-21T00:55:52.069Z,16.26
2023-05-21T01:00:57.063Z,16.28
2023-05-21T01:06:01.504Z,16.29
2023-05-21T01:11:05.194Z,16.30
2023-05-21T01:16:08.990Z,16.28
2023-05-21T01:21:11.195Z,16.22
2023-05-21T01:26:13.132Z,16.20
2023-05-21T01:31:26.419Z,16.21
2023-05-21T01:36:34.789Z,16.23
2023-05-21T01:41:41.170Z,16.24
2023-05-21T01:46:42.893Z,16.15
2023-05-21T01:51:45.118Z,15.99
2023-05-21T01:56:48.044Z,15.93
2023-05-21T02:01:49.983Z,15.88
2023-05-21T02:06:52.038Z,15.80
2023-05-21T02:11:54.324Z,15.79
2023-05-21T02:16:56.848Z,15.78
2023-05-21T02:21:58.532Z,15.77
2023-05-21T02:27:00.402Z,15.74
2023-05-21T02:32:02.827Z,15.72
2023-05-21T02:37:04.674Z,15.71
2023-05-21T02:42:06.599Z,15.70
2023-05-21T02:47:10.413Z,15.69
2023-05-21T02:52:12.966Z,15.69
2023-05-21T02:57:15.263Z,15.70
2023-05-21T03:02:17.204Z,15.75
2023-05-21T03:07:20.122Z,15.80
2023-05-21T03:12:22.203Z,15.86
2023-05-21T03:17:23.992Z,15.94
2023-05-21T03:22:25.895Z,16.01
2023-05-21T03:27:28.010Z,16.08
2023-05-21T03:32:30.280Z,16.16
2023-05-21T03:37:32.727Z,16.21
2023-05-21T03:42:35.269Z,16.31
2023-05-21T03:47:37.338Z,16.44
2023-05-21T03:52:41.321Z,16.63
2023-05-21T03:57:43.804Z,17.38
2023-05-21T04:07:15.329Z,20.35
2023-05-21T04:12:19.184Z,21.99
2023-05-21T04:17:22.391Z,23.20
2023-05-21T04:22:26.835Z,24.27
2023-05-21T04:27:28.694Z,25.35
2023-05-21T04:32:33.546Z,25.78
2023-05-21T04:37:36.383Z,25.98
2023-05-21T04:42:39.280Z,25.73
2023-05-21T04:47:43.389Z,25.86
2023-05-21T04:52:45.739Z,25.46
2023-05-21T04:57:47.663Z,24.52
2023-05-21T05:02:49.729Z,24.23
2023-05-21T05:07:51.712Z,24.78
2023-05-21T05:12:53.668Z,25.45
2023-05-21T05:17:56.701Z,25.99
2023-05-21T05:22:58.638Z,25.97
2023-05-21T05:28:00.821Z,25.22
2023-05-21T05:33:02.997Z,23.99
2023-05-21T05:38:05.970Z,23.17
2023-05-21T05:43:07.925Z,23.64
2023-05-21T05:48:09.888Z,24.73
2023-05-21T05:53:13.423Z,25.69
2023-05-21T05:58:15.634Z,26.49
2023-05-21T06:03:41.712Z,27.00
2023-05-21T06:08:46.608Z,27.66
2023-05-21T06:13:48.497Z,28.21
2023-05-21T06:18:51.492Z,28.44
2023-05-21T06:23:53.467Z,28.49
2023-05-21T06:28:56.675Z,28.30
2023-05-21T06:34:00.008Z,27.98
2023-05-21T06:39:03.417Z,27.74
2023-05-21T06:44:06.128Z,27.38
2023-05-21T06:49:35.039Z,26.73
2023-05-21T06:54:37.121Z,25.82
2023-05-21T06:59:39.369Z,25.16
2023-05-21T07:04:41.228Z,24.61
2023-05-21T07:09:42.950Z,24.09
2023-05-21T07:14:45.268Z,24.36
2023-05-21T07:19:47.182Z,25.25
2023-05-21T07:24:49.407Z,25.67
2023-05-21T07:29:52.359Z,25.46
2023-05-21T07:34:56.730Z,25.26
2023-05-21T07:40:00.475Z,25.54
2023-05-21T07:45:03.042Z,25.61
2023-05-21T07:50:08.766Z,25.99
2023-05-21T07:55:11.313Z,26.08
2023-05-21T08:00:14.310Z,26.31
2023-05-21T08:05:24.456Z,26.75
2023-05-21T08:10:26.400Z,27.20
2023-05-21T08:15:28.363Z,27.45
2023-05-21T08:20:32.248Z,27.38
2023-05-21T08:25:34.260Z,27.57
2023-05-21T08:30:37.573Z,27.82
2023-05-21T08:35:39.529Z,28.06
2023-05-21T08:40:59.582Z,28.34
2023-05-21T08:46:04.228Z,28.56
2023-05-21T08:51:07.826Z,28.63
2023-05-21T08:56:17.855Z,28.75
2023-05-21T09:01:42.298Z,28.84
2023-05-21T09:06:54.963Z,28.65
2023-05-21T09:12:10.148Z,28.66
2023-05-21T09:17:14.935Z,28.70
2023-05-21T09:22:17.652Z,28.77
2023-05-21T09:27:19.507Z,28.85
2023-05-21T09:32:21.382Z,28.93
2023-05-21T09:37:27.569Z,28.95
2023-05-21T09:42:30.156Z,29.14
2023-05-21T09:47:32.486Z,29.18
2023-05-21T09:52:37.295Z,29.15
2023-05-21T09:57:50.887Z,29.18
2023-05-21T10:03:01.818Z,29.30
2023-05-21T10:08:04.892Z,29.44
2023-05-21T10:13:10.365Z,29.52
2023-05-21T10:18:13.645Z,29.73
2023-05-21T10:23:15.699Z,30.01
2023-05-21T10:28:20.707Z,30.17
2023-05-21T10:33:25.073Z,30.30
2023-05-21T10:38:27.967Z,30.35
2023-05-21T10:43:48.588Z,30.26
2023-05-21T10:48:56.066Z,30.39
2023-05-21T10:54:36.996Z,30.30
2023-05-21T10:59:49.346Z,30.48
2023-05-21T11:04:58.751Z,30.67
2023-05-21T11:10:32.781Z,30.87
2023-05-21T11:15:57.747Z,30.91
2023-05-21T11:21:06.812Z,31.13
2023-05-21T11:26:08.561Z,31.15
2023-05-21T11:31:27.254Z,30.51
2023-05-21T11:36:29.135Z,30.34
2023-05-21T11:41:31.065Z,30.13
2023-05-21T11:46:34.274Z,29.81
2023-05-21T11:51:36.725Z,29.73
2023-05-21T11:56:42.028Z,29.67
2023-05-21T12:01:44.293Z,29.85
2023-05-21T12:06:46.129Z,29.88
2023-05-21T12:11:47.906Z,30.17
2023-05-21T12:16:49.952Z,30.01
2023-05-21T12:21:51.739Z,29.52
2023-05-21T12:26:55.195Z,29.26
2023-05-21T12:32:01.774Z,29.19
2023-05-21T12:37:05.508Z,29.08
2023-05-21T12:42:08.496Z,29.19
2023-05-21T12:47:11.263Z,29.53
2023-05-21T12:52:14.466Z,29.38
2023-05-21T12:57:17.474Z,28.95
2023-05-21T13:02:22.153Z,28.48
2023-05-21T13:07:26.331Z,28.45
2023-05-21T13:12:30.028Z,28.50
2023-05-21T13:17:32.315Z,28.77
2023-05-21T13:22:35.734Z,28.82
2023-05-21T13:27:39.696Z,28.78
2023-05-21T13:32:42.681Z,28.70
2023-05-21T13:37:45.071Z,28.54
2023-05-21T13:42:48.824Z,28.77
2023-05-21T13:47:50.789Z,28.86
2023-05-21T13:52:52.489Z,28.71
2023-05-21T13:57:54.379Z,28.69
2023-05-21T14:02:56.795Z,28.94
2023-05-21T14:07:58.950Z,29.17
2023-05-21T14:13:11.228Z,29.33
2023-05-21T14:18:17.765Z,29.46
2023-05-21T14:23:19.576Z,29.54
2023-05-21T14:28:21.859Z,29.42
2023-05-21T14:33:23.681Z,29.08
2023-05-21T14:38:25.995Z,28.91
2023-05-21T14:43:27.754Z,29.08
2023-05-21T14:48:29.514Z,29.35
2023-05-21T14:53:31.323Z,29.02
2023-05-21T14:58:33.182Z,28.66
2023-05-21T15:03:35.046Z,28.44
2023-05-21T15:08:36.958Z,28.38
2023-05-21T15:13:39.568Z,28.39
2023-05-21T15:18:41.357Z,28.38
2023-05-21T15:23:43.065Z,28.21
2023-05-21T15:28:44.797Z,28.01
2023-05-21T15:33:46.566Z,27.95
2023-05-21T15:38:48.633Z,28.11
2023-05-21T15:43:50.394Z,28.00
2023-05-21T15:48:52.152Z,27.87
2023-05-21T15:53:54.512Z,27.82
2023-05-21T15:58:58.650Z,27.70
2023-05-21T16:04:03.372Z,27.84
2023-05-21T16:09:05.563Z,28.22
2023-05-21T16:14:07.408Z,28.45
2023-05-21T16:19:09.169Z,28.64
2023-05-21T16:24:11.023Z,28.59
2023-05-21T16:29:14.851Z,28.47
2023-05-21T16:34:16.611Z,28.08
2023-05-21T16:39:18.442Z,27.71
2023-05-21T16:44:20.424Z,27.67
2023-05-21T16:49:22.180Z,27.72
2023-05-21T16:54:23.913Z,27.51
2023-05-21T16:59:25.676Z,27.02
2023-05-21T17:04:27.424Z,26.36
2023-05-21T17:09:29.397Z,25.78
2023-05-21T17:14:34.178Z,25.33
2023-05-21T17:19:37.557Z,25.09
2023-05-21T17:24:39.505Z,24.91
2023-05-21T17:29:41.492Z,24.60
2023-05-21T17:34:44.051Z,24.11
2023-05-21T17:39:46.050Z,23.53
2023-05-21T17:44:47.785Z,22.99
2023-05-21T17:49:49.512Z,22.53
2023-05-21T17:54:51.491Z,22.14
2023-05-21T17:59:53.276Z,21.82
2023-05-21T18:04:55.136Z,21.49
2023-05-21T18:09:57.048Z,21.16
2023-05-21T18:14:58.869Z,20.79
2023-05-21T18:20:00.648Z,20.41
2023-05-21T18:25:03.548Z,20.08
2023-05-21T18:30:08.585Z,19.75
2023-05-21T18:35:12.005Z,19.41
2023-05-21T18:40:16.980Z,19.09
2023-05-21T18:45:18.757Z,18.87
2023-05-21T18:50:20.605Z,18.64
2023-05-21T18:55:22.621Z,18.37
2023-05-21T19:00:24.348Z,18.20
2023-05-21T19:05:26.389Z,18.05
2023-05-21T19:10:30.697Z,17.88
2023-05-21T19:15:33.021Z,17.72
2023-05-21T19:20:36.984Z,17.55
2023-05-21T19:25:39.254Z,17.49
2023-05-21T19:30:41.097Z,17.83
2023-05-21T19:35:43.489Z,18.05
2023-05-21T19:40:45.512Z,18.10
2023-05-21T19:45:47.426Z,18.11
2023-05-21T19:50:49.185Z,18.10
2023-05-21T19:55:51.188Z,18.13
2023-05-21T20:00:55.803Z,18.16
2023-05-21T20:05:58.682Z,18.12
2023-05-21T20:11:00.877Z,18.03
2023-05-21T20:16:02.613Z,17.92
2023-05-21T20:21:06.398Z,17.79
2023-05-21T20:26:08.388Z,17.71
2023-05-21T20:31:10.196Z,17.67
2023-05-21T20:36:15.292Z,17.68
2023-05-21T20:41:17.321Z,17.63
2023-05-21T20:46:19.944Z,17.55
2023-05-21T20:51:21.842Z,17.43
2023-05-21T20:56:39.884Z,17.32
2023-05-21T21:01:43.643Z,17.20
2023-05-21T21:06:47.277Z,17.14
2023-05-21T21:11:50.740Z,17.13
2023-05-21T21:16:54.350Z,17.07
2023-05-21T21:21:56.246Z,16.98
2023-05-21T21:26:58.023Z,16.88
2023-05-21T21:31:59.890Z,16.79
2023-05-21T21:37:01.669Z,16.69
2023-05-21T21:42:04.309Z,16.59
2023-05-21T21:47:09.855Z,16.48
2023-05-21T21:52:14.751Z,16.35
2023-05-21T21:57:16.535Z,16.21
2023-05-21T22:02:18.525Z,16.12
2023-05-21T22:07:20.799Z,16.06
2023-05-21T22:12:22.691Z,16.02
2023-05-21T22:17:24.496Z,15.95
2023-05-21T22:22:26.747Z,15.86
2023-05-21T22:27:28.687Z,15.76
2023-05-21T22:32:30.778Z,15.66
2023-05-21T22:37:32.586Z,15.54
2023-05-21T22:42:35.151Z,15.42
2023-05-21T22:47:39.734Z,15.33
2023-05-21T22:52:41.929Z,15.22
2023-05-21T22:57:44.309Z,15.12
2023-05-21T23:02:47.505Z,15.04
2023-05-21T23:07:50.036Z,14.99
2023-05-21T23:12:54.192Z,14.94
2023-05-21T23:17:56.920Z,14.87
2023-05-21T23:22:58.911Z,14.79
2023-05-21T23:28:00.673Z,14.70
2023-05-21T23:33:02.632Z,14.59
2023-05-21T23:38:05.219Z,14.43
2023-05-21T23:43:18.131Z,14.33
2023-05-21T23:48:23.344Z,14.26
2023-05-21T23:53:25.886Z,14.19
2023-05-21T23:58:27.625Z,14.15
